createdAt,value
2019-05-12T15:56:22.769Z,5.15
2019-05-12T15:59:34.646Z,7.47
2019-05-12T16:01:43.978Z,6.20
2019-05-12T16:03:19.370Z,12.05
2019-05-12T16:06:53.694Z,4.10
2019-05-12T16:18:10.226Z,5.85
2019-05-12T16:19:44.223Z,5.78
2019-05-12T16:24:34.062Z,4.72
2019-05-12T16:25:42.480Z,3.95
2019-05-12T16:26:51.955Z,5.60
2019-05-12T16:28:17.180Z,6.20
2019-05-12T16:29:19.226Z,6.90
2019-05-12T16:30:27.070Z,7.67
2019-05-12T16:31:48.231Z,4.60
2019-05-12T16:32:57.098Z,3.60
2019-05-12T16:34:06.089Z,5.25
2019-05-12T16:35:23.590Z,6.55
2019-05-12T16:36:33.770Z,7.70
2019-05-12T16:37:44.392Z,5.05
2019-05-12T16:38:58.060Z,6.17
2019-05-12T16:40:09.886Z,4.28
2019-05-12T16:41:49.159Z,4.37
2019-05-12T16:43:14.422Z,4.65
2019-05-12T16:45:24.505Z,4.67
2019-05-12T16:47:48.404Z,6.83
2019-05-12T16:50:54.082Z,3.80
2019-05-12T16:54:24.184Z,43.38
2019-05-12T16:55:44.723Z,42.67
2019-05-12T16:57:00.222Z,41.40
2019-05-12T16:58:26.118Z,33.85
2019-05-12T16:59:46.881Z,29.60
2019-05-12T17:00:58.212Z,14.90
2019-05-12T17:02:09.843Z,18.35
2019-05-12T17:03:34.028Z,9.65
2019-05-12T17:05:14.609Z,8.55
2019-05-12T17:06:20.537Z,5.35
2019-05-12T17:07:35.153Z,6.00
2019-05-12T17:09:13.491Z,6.65
2019-05-12T17:10:19.710Z,5.60
2019-05-12T17:11:37.354Z,5.95
2019-05-12T17:12:48.253Z,14.35
2019-05-12T17:14:23.464Z,6.83
2019-05-12T17:21:26.313Z,4.65
2019-05-12T17:24:27.591Z,13.88
2019-05-12T17:25:44.821Z,11.73
2019-05-12T17:26:51.916Z,16.95
2019-05-12T17:28:07.516Z,22.13
2019-05-12T17:29:19.407Z,18.27
2019-05-12T17:30:34.432Z,16.97
2019-05-12T17:31:39.857Z,14.40
2019-05-12T17:32:57.893Z,8.35
2019-05-12T17:33:54.342Z,4.67
2019-05-12T17:35:00.108Z,7.70
2019-05-12T17:36:12.008Z,6.50
2019-05-12T17:37:31.481Z,4.60
2019-05-12T17:39:09.854Z,4.10
2019-05-12T17:40:33.711Z,3.00
2019-05-12T17:43:56.611Z,4.33
2019-05-12T17:45:04.027Z,4.80
2019-05-12T17:46:26.025Z,4.20
2019-05-12T17:47:32.208Z,4.78
2019-05-12T17:48:42.819Z,4.15
2019-05-12T17:49:45.005Z,6.50
2019-05-12T17:50:50.633Z,18.67
2019-05-12T17:52:04.390Z,20.68
2019-05-12T17:53:15.921Z,38.42
2019-05-12T17:54:21.243Z,20.62
2019-05-12T17:55:19.759Z,21.00
2019-05-12T17:56:36.662Z,12.03
2019-05-12T17:58:04.098Z,10.20
2019-05-12T17:59:22.996Z,9.38
2019-05-12T18:00:41.255Z,8.85
2019-05-12T18:01:46.439Z,6.80
2019-05-12T18:02:56.233Z,4.40
2019-05-12T18:04:04.354Z,5.65
2019-05-12T18:05:16.173Z,4.42
2019-05-12T18:06:30.857Z,4.00
2019-05-12T18:07:50.820Z,3.60
2019-05-12T18:10:04.141Z,3.90
2019-05-12T18:11:04.797Z,7.20
2019-05-12T18:13:39.959Z,4.03
2019-05-12T18:14:52.160Z,5.50
2019-05-12T18:16:11.613Z,4.67
2019-05-12T18:17:27.527Z,6.60
2019-05-12T18:18:38.253Z,5.47
2019-05-12T18:20:49.771Z,5.53
2019-05-12T18:33:09.100Z,6.22
2019-05-12T18:34:10.099Z,5.25
2019-05-12T18:35:28.254Z,5.70
2019-05-12T18:37:00.979Z,7.30
2019-05-12T18:38:23.034Z,8.98
2019-05-12T18:41:18.477Z,10.93
2019-05-12T18:42:56.733Z,34.53
2019-05-12T18:44:18.246Z,22.40
2019-05-12T18:45:25.246Z,11.53
2019-05-12T18:46:44.945Z,6.20
2019-05-12T18:47:50.348Z,7.40
2019-05-12T18:49:12.053Z,5.97
2019-05-12T18:50:20.553Z,10.35
2019-05-12T18:51:27.006Z,8.10
2019-05-12T18:53:03.965Z,7.05
2019-05-12T18:54:14.742Z,6.22
2019-05-12T18:55:29.060Z,8.15
2019-05-12T18:56:33.504Z,8.53
2019-05-12T18:57:46.304Z,6.10
2019-05-12T18:58:57.027Z,6.87
2019-05-12T19:00:21.044Z,6.22
2019-05-12T19:01:37.131Z,8.85
2019-05-12T19:02:50.650Z,19.62
2019-05-12T19:04:19.583Z,13.45
2019-05-12T19:05:30.976Z,10.70
2019-05-12T19:06:50.413Z,12.90
2019-05-12T19:07:59.261Z,20.60
2019-05-12T19:09:14.086Z,18.87
2019-05-12T19:12:32.185Z,24.07
2019-05-12T19:13:33.779Z,18.87
2019-05-12T19:15:17.040Z,17.52
2019-05-12T19:16:31.989Z,17.45
2019-05-12T19:17:40.321Z,23.18
2019-05-12T19:18:56.893Z,25.05
2019-05-12T19:20:05.105Z,19.95
2019-05-12T19:21:15.662Z,19.10
2019-05-12T19:22:24.422Z,23.55
2019-05-12T19:23:35.071Z,57.78
2019-05-12T19:24:59.834Z,73.60
2019-05-12T19:26:56.876Z,69.07
2019-05-12T19:28:58.006Z,54.30
2019-05-12T19:41:24.543Z,9.78
2019-05-12T19:43:03.347Z,14.73
2019-05-12T19:44:44.615Z,9.38
2019-05-12T19:46:53.912Z,14.18
2019-05-12T19:48:44.334Z,8.90
2019-05-12T19:49:50.649Z,11.90
2019-05-12T19:51:16.890Z,11.03
2019-05-12T19:52:14.028Z,8.35
2019-05-12T19:53:19.372Z,9.40
2019-05-12T19:54:44.372Z,9.35
2019-05-12T19:55:55.190Z,8.35
2019-05-12T19:57:21.754Z,7.30
2019-05-12T19:58:29.666Z,6.25
2019-05-12T19:59:53.380Z,8.18
2019-05-12T20:01:56.151Z,10.50
2019-05-12T20:03:08.719Z,7.80
2019-05-12T20:04:36.501Z,7.70
2019-05-12T20:05:58.012Z,6.50
2019-05-12T20:07:08.043Z,10.88
2019-05-12T20:08:22.354Z,6.17
2019-05-12T20:09:48.436Z,6.97
2019-05-12T20:10:49.650Z,12.88
2019-05-12T20:12:01.303Z,8.63
2019-05-12T20:13:23.930Z,6.92
2019-05-12T20:14:59.356Z,6.58
2019-05-12T20:16:05.727Z,8.60
2019-05-12T20:17:12.133Z,7.60
2019-05-12T20:18:25.679Z,11.10
2019-05-12T20:20:07.104Z,7.90
2019-05-12T20:21:15.557Z,11.57
2019-05-12T20:22:26.087Z,8.60
2019-05-12T20:23:34.966Z,12.20
2019-05-12T20:24:40.338Z,10.30
2019-05-12T20:25:53.681Z,7.60
2019-05-12T20:27:05.194Z,9.38
2019-05-12T20:28:16.652Z,7.12
2019-05-12T20:29:49.440Z,6.70
2019-05-12T20:31:16.329Z,7.50
2019-05-12T20:32:25.772Z,8.15
2019-05-12T20:34:10.563Z,10.35
2019-05-12T20:36:25.964Z,8.40
2019-05-12T20:37:33.711Z,9.55
2019-05-12T20:38:53.711Z,7.08
2019-05-12T20:42:44.066Z,6.58
2019-05-12T20:44:43.740Z,8.30
2019-05-12T20:45:49.919Z,9.30
2019-05-12T20:47:01.735Z,8.53
2019-05-12T20:48:25.085Z,6.97
2019-05-12T20:49:36.261Z,8.73
2019-05-12T20:50:56.370Z,7.10
2019-05-12T20:52:04.476Z,7.95
2019-05-12T20:53:24.698Z,6.08
2019-05-12T20:54:27.762Z,8.28
2019-05-12T20:57:02.265Z,7.47
2019-05-12T20:58:13.541Z,6.65
2019-05-12T20:59:27.943Z,7.80
2019-05-12T21:01:05.077Z,7.40
2019-05-12T21:02:29.685Z,7.12
2019-05-12T21:04:03.676Z,8.33
2019-05-12T21:05:58.067Z,6.22
2019-05-12T21:07:05.281Z,10.18
2019-05-12T21:08:20.578Z,9.10
2019-05-12T21:10:34.781Z,9.90
2019-05-12T21:12:08.931Z,7.70
2019-05-12T21:13:20.519Z,7.55
2019-05-12T21:14:33.437Z,9.45
2019-05-12T21:15:45.781Z,8.55
2019-05-12T21:16:53.923Z,7.33
2019-05-12T21:18:11.537Z,9.35
2019-05-12T21:19:20.369Z,7.08
2019-05-12T21:20:28.873Z,7.80
2019-05-12T21:21:38.344Z,10.50
2019-05-12T21:22:45.384Z,9.50
2019-05-12T21:23:53.991Z,6.58
2019-05-12T21:25:23.328Z,9.13
2019-05-12T21:26:54.852Z,9.40
2019-05-12T21:28:07.855Z,9.43
2019-05-12T21:29:19.140Z,6.85
2019-05-12T21:30:36.264Z,6.10
2019-05-12T21:31:44.571Z,6.70
2019-05-12T21:33:01.110Z,6.78
2019-05-12T21:34:13.052Z,7.58
2019-05-12T21:35:40.083Z,7.08
2019-05-12T21:40:40.940Z,11.35
2019-05-12T21:44:00.037Z,10.75
2019-05-12T21:45:05.433Z,8.38
2019-05-12T21:46:15.433Z,7.65
2019-05-12T21:47:44.695Z,5.80
2019-05-12T21:49:10.662Z,6.60
2019-05-12T21:50:56.750Z,9.90
2019-05-12T21:52:37.183Z,8.30
2019-05-12T21:54:06.557Z,7.90
2019-05-12T21:55:21.613Z,6.37
2019-05-12T21:56:49.156Z,8.03
2019-05-12T21:58:12.089Z,11.53
2019-05-12T21:59:37.711Z,6.80
2019-05-12T22:03:02.628Z,10.23
2019-05-12T22:04:58.433Z,5.92
2019-05-12T22:06:34.878Z,6.53
2019-05-12T22:07:55.239Z,9.90
2019-05-12T22:09:06.533Z,9.48
2019-05-12T22:10:37.296Z,7.60
2019-05-12T22:11:51.054Z,5.87
2019-05-12T22:13:06.941Z,7.90
2019-05-12T22:15:38.309Z,7.80
2019-05-12T22:16:51.751Z,5.90
2019-05-12T22:18:04.734Z,8.83
2019-05-12T22:19:11.165Z,5.67
2019-05-12T22:20:20.856Z,9.20
2019-05-12T22:21:35.791Z,7.28
2019-05-12T22:22:41.153Z,11.22
2019-05-12T22:23:51.149Z,8.25
2019-05-12T22:24:57.651Z,9.15
2019-05-12T22:26:14.572Z,10.48
2019-05-12T22:27:27.132Z,7.35
2019-05-12T22:28:45.945Z,7.62
2019-05-12T22:30:16.666Z,8.05
2019-05-12T22:31:33.254Z,9.00
2019-05-12T22:32:46.787Z,8.30
2019-05-12T22:33:56.253Z,12.60
2019-05-12T22:35:22.129Z,7.55
2019-05-12T22:36:45.248Z,7.12
2019-05-12T22:38:21.115Z,7.55
2019-05-12T22:39:26.111Z,10.78
2019-05-12T22:40:31.255Z,8.93
2019-05-12T22:41:41.658Z,8.28
2019-05-12T22:43:56.761Z,8.00
2019-05-12T22:45:03.853Z,9.03
2019-05-12T22:46:09.847Z,9.93
2019-05-12T22:47:23.904Z,6.75
2019-05-12T22:48:29.658Z,7.33
2019-05-12T22:49:36.379Z,10.08
2019-05-12T22:50:43.543Z,9.05
2019-05-12T22:52:02.711Z,10.75
2019-05-12T22:53:04.534Z,5.20
2019-05-12T22:54:13.696Z,6.95
2019-05-12T22:55:26.236Z,14.65
2019-05-12T22:56:49.527Z,5.72
2019-05-12T22:58:10.708Z,10.03
2019-05-12T22:59:45.026Z,10.75
2019-05-12T23:01:02.502Z,8.68
2019-05-12T23:02:50.288Z,9.10
2019-05-12T23:04:14.214Z,15.23
2019-05-12T23:05:28.210Z,7.50
2019-05-12T23:06:48.741Z,10.38
2019-05-12T23:08:00.044Z,9.80
2019-05-12T23:09:06.769Z,12.00
2019-05-12T23:10:14.268Z,10.48
2019-05-12T23:11:32.223Z,8.03
2019-05-12T23:12:35.352Z,8.00
2019-05-12T23:13:53.215Z,10.80
2019-05-12T23:15:02.857Z,12.43
2019-05-12T23:16:14.026Z,10.85
2019-05-12T23:17:24.623Z,9.98
2019-05-12T23:18:33.828Z,6.95
2019-05-12T23:19:51.405Z,16.32
2019-05-12T23:20:54.056Z,6.75
2019-05-12T23:22:03.803Z,10.08
2019-05-12T23:23:15.331Z,9.28
2019-05-12T23:24:30.544Z,6.62
2019-05-12T23:25:36.888Z,8.50
2019-05-12T23:26:49.208Z,8.10
2019-05-12T23:28:00.393Z,10.40
2019-05-12T23:29:06.305Z,8.35
2019-05-12T23:30:16.029Z,10.00
2019-05-12T23:31:25.897Z,4.30
2019-05-12T23:32:36.809Z,6.62
2019-05-12T23:33:54.386Z,6.28
2019-05-12T23:35:04.035Z,6.87
2019-05-12T23:36:15.745Z,6.42
2019-05-12T23:37:24.506Z,7.00
2019-05-12T23:38:35.047Z,7.78
2019-05-12T23:39:47.585Z,10.18
2019-05-12T23:40:56.074Z,11.88
2019-05-12T23:42:18.383Z,8.00
2019-05-12T23:43:34.217Z,10.10
2019-05-12T23:44:48.599Z,5.35
2019-05-12T23:45:58.268Z,6.10
2019-05-12T23:47:08.110Z,7.97
2019-05-12T23:48:28.729Z,5.65
2019-05-12T23:49:36.155Z,11.55
2019-05-12T23:50:45.336Z,10.68
2019-05-12T23:52:00.556Z,6.20
2019-05-12T23:53:21.443Z,7.90
2019-05-12T23:54:38.936Z,23.18
2019-05-12T23:55:46.929Z,6.35
2019-05-12T23:56:56.351Z,6.22
2019-05-12T23:58:05.315Z,6.08
2019-05-12T23:59:17.731Z,6.47
